createdAt,value
2022-09-02T00:02:09.574Z,23.73
2022-09-02T00:07:02.085Z,23.69
2022-09-02T00:11:54.696Z,23.67
2022-09-02T00:16:47.445Z,23.64
2022-09-02T00:21:40.079Z,23.64
2022-09-02T00:26:32.659Z,23.62
2022-09-02T00:31:25.281Z,23.59
2022-09-02T00:41:10.617Z,23.57
2022-09-02T00:46:03.203Z,23.54
2022-09-02T00:50:55.980Z,23.55
2022-09-02T00:55:48.602Z,23.52
2022-09-02T01:00:41.341Z,23.52
2022-09-02T01:05:33.847Z,23.5
2022-09-02T01:10:26.368Z,23.5
2022-09-02T01:15:19.194Z,23.48
2022-09-02T01:20:11.889Z,23.47
2022-09-02T01:25:04.523Z,23.43
2022-09-02T01:29:57.106Z,23.45
2022-09-02T01:34:49.792Z,23.41
2022-09-02T01:39:42.213Z,23.39
2022-09-02T01:44:35.218Z,23.36
2022-09-02T01:49:27.735Z,23.35
2022-09-02T01:54:20.575Z,23.36
2022-09-02T01:59:12.885Z,23.32
2022-09-02T02:04:06.836Z,23.31
2022-09-02T02:08:58.186Z,23.3
2022-09-02T02:13:50.848Z,23.29
2022-09-02T02:18:43.658Z,23.27
2022-09-02T02:23:36.404Z,23.25
2022-09-02T02:28:28.955Z,23.23
2022-09-02T02:33:21.857Z,23.21
2022-09-02T02:38:15.549Z,23.2
2022-09-02T02:43:07.028Z,23.19
2022-09-02T02:47:59.548Z,23.18
2022-09-02T02:52:52.058Z,23.17
2022-09-02T02:57:44.692Z,23.13
2022-09-02T03:02:37.475Z,23.13
2022-09-02T03:07:30.048Z,23.1
2022-09-02T03:12:22.724Z,23.07
2022-09-02T03:17:15.486Z,23.07
2022-09-02T03:22:08.130Z,23.06
2022-09-02T03:27:00.796Z,23.04
2022-09-02T03:31:53.410Z,23
2022-09-02T03:36:46.101Z,23.03
2022-09-02T03:41:38.557Z,22.97
2022-09-02T03:46:31.563Z,22.97
2022-09-02T03:51:24.077Z,22.95
2022-09-02T03:56:16.382Z,22.95
2022-09-02T04:01:09.022Z,22.94
2022-09-02T04:06:01.630Z,22.9
2022-09-02T04:10:54.533Z,22.92
2022-09-02T04:15:47.238Z,22.88
2022-09-02T04:20:39.910Z,22.88
2022-09-02T04:25:32.747Z,22.86
2022-09-02T04:30:25.397Z,22.85
2022-09-02T04:35:18.141Z,22.84
2022-09-02T04:40:10.923Z,22.84
2022-09-02T04:45:03.519Z,22.77
2022-09-02T04:49:55.558Z,22.19
2022-09-02T04:54:47.966Z,22.26
2022-09-02T04:59:40.397Z,22.12
2022-09-02T05:04:32.835Z,22.05
2022-09-02T05:09:25.324Z,21.99
2022-09-02T05:14:17.715Z,21.57
2022-09-02T05:19:10.460Z,21.82
2022-09-02T05:24:02.866Z,21.6
2022-09-02T05:28:55.350Z,21.47
2022-09-02T05:33:48.091Z,21.34
2022-09-02T05:38:39.831Z,21.19
2022-09-02T05:43:32.776Z,21.51
2022-09-02T05:48:25.555Z,21.45
2022-09-02T05:53:17.809Z,21.14
2022-09-02T05:58:09.932Z,20.71
2022-09-02T06:03:02.957Z,21.04
2022-09-02T06:07:55.403Z,21.2
2022-09-02T06:12:47.899Z,20.92
2022-09-02T06:17:40.227Z,20.62
2022-09-02T06:27:26.261Z,20.94
2022-09-02T06:37:11.094Z,20.01
2022-09-02T06:42:02.865Z,20.09
2022-09-02T06:46:56.918Z,21.18
2022-09-02T06:51:49.508Z,19.84
2022-09-02T06:56:43.879Z,18.71
2022-09-02T07:01:34.606Z,18.9
2022-09-02T07:06:28.172Z,20.24
2022-09-02T07:11:20.185Z,19.58
2022-09-02T07:16:13.656Z,19.41
2022-09-02T07:21:05.371Z,18.73
2022-09-02T07:25:58.829Z,19.13
2022-09-02T07:30:53.642Z,20.28
2022-09-02T07:35:44.376Z,19.92
2022-09-02T07:40:36.458Z,19.79
2022-09-02T07:45:29.049Z,19.71
2022-09-02T07:50:22.323Z,20.12
2022-09-02T07:55:15.003Z,20.25
2022-09-02T08:00:07.028Z,20.06
2022-09-02T08:05:00.168Z,20.43
2022-09-02T08:09:51.771Z,20.09
2022-09-02T08:14:44.566Z,20.51
2022-09-02T08:19:37.337Z,20.64
2022-09-02T08:24:29.765Z,20.49
2022-09-02T08:29:22.614Z,20.79
2022-09-02T08:34:16.006Z,21.19
2022-09-02T08:39:08.414Z,21.31
2022-09-02T08:44:01.002Z,21.04
2022-09-02T08:48:53.784Z,21.29
2022-09-02T08:53:46.775Z,21.37
2022-09-02T08:58:39.725Z,21.48
2022-09-02T09:03:32.322Z,21.51
2022-09-02T09:08:25.291Z,21.66
2022-09-02T09:13:17.736Z,21.72
2022-09-02T09:18:10.687Z,21.84
2022-09-02T09:23:02.947Z,21.87
2022-09-02T09:27:55.583Z,21.81
2022-09-02T09:32:48.250Z,21.79
2022-09-02T09:37:40.624Z,21.72
2022-09-02T09:42:33.058Z,21.7
2022-09-02T09:47:25.330Z,21.71
2022-09-02T09:52:13.254Z,21.71
2022-09-02T09:57:05.871Z,21.78
2022-09-02T10:01:59.725Z,21.85
2022-09-02T10:06:52.267Z,21.86
2022-09-02T10:11:44.732Z,21.8
2022-09-02T10:16:37.532Z,21.9
2022-09-02T10:21:25.412Z,21.99
2022-09-02T10:26:17.821Z,22.07
2022-09-02T10:31:11.721Z,22.1
2022-09-02T10:36:04.678Z,22.17
2022-09-02T10:40:57.775Z,22.2
2022-09-02T10:45:50.436Z,22.26
2022-09-02T10:50:44.600Z,22.33
2022-09-02T10:55:35.777Z,22.36
2022-09-02T11:00:28.363Z,22.4
2022-09-02T11:05:20.614Z,22.44
2022-09-02T11:10:13.402Z,22.51
2022-09-02T11:15:05.826Z,22.57
2022-09-02T11:19:58.438Z,22.61
2022-09-02T11:24:51.261Z,22.66
2022-09-02T11:29:43.917Z,22.68
2022-09-02T11:34:36.727Z,22.71
2022-09-02T11:39:36.350Z,22.73
2022-09-02T11:44:22.215Z,22.75
2022-09-02T11:49:15.056Z,22.77
2022-09-02T11:54:07.702Z,22.8
2022-09-02T11:59:00.361Z,22.82
2022-09-02T12:08:46.093Z,22.88
2022-09-02T12:13:38.897Z,22.91
2022-09-02T12:18:31.575Z,22.97
2022-09-02T12:23:24.408Z,23.02
2022-09-02T12:28:19.032Z,23.07
2022-09-02T12:33:09.979Z,23.11
2022-09-02T12:38:02.598Z,23.11
2022-09-02T12:42:55.335Z,23.13
2022-09-02T12:47:47.848Z,23.16
2022-09-02T12:52:40.474Z,23.18
2022-09-02T12:57:33.094Z,23.18
2022-09-02T13:02:26.825Z,23.2
2022-09-02T13:07:18.246Z,23.21
2022-09-02T13:12:10.828Z,23.22
2022-09-02T13:17:13.794Z,23.23
2022-09-02T13:21:56.224Z,23.26
2022-09-02T13:31:40.991Z,23.28
2022-09-02T13:36:33.871Z,23.29
2022-09-02T13:41:26.508Z,23.3
2022-09-02T13:46:19.268Z,23.31
2022-09-02T13:51:12.147Z,23.35
2022-09-02T13:56:04.745Z,23.38
2022-09-02T14:01:01.236Z,23.38
2022-09-02T14:05:49.896Z,23.4
2022-09-02T14:10:42.624Z,23.41
2022-09-02T14:15:35.661Z,23.41
2022-09-02T14:20:28.217Z,23.4
2022-09-02T14:25:24.222Z,23.41
2022-09-02T14:30:13.646Z,23.42
2022-09-02T14:35:05.907Z,23.44
2022-09-02T14:39:58.873Z,23.48
2022-09-02T14:44:51.416Z,23.51
2022-09-02T14:49:44.102Z,23.53
2022-09-02T14:54:36.398Z,23.53
2022-09-02T14:59:29.026Z,23.53
2022-09-02T15:04:21.810Z,23.52
2022-09-02T15:09:16.439Z,23.53
2022-09-02T15:14:07.160Z,23.52
2022-09-02T15:18:59.808Z,23.5
2022-09-02T15:23:52.528Z,23.49
2022-09-02T15:28:45.227Z,23.49
2022-09-02T15:33:37.919Z,23.52
2022-09-02T15:38:30.631Z,23.55
2022-09-02T15:43:23.451Z,23.5
2022-09-02T15:48:15.891Z,23.49
2022-09-02T15:53:08.395Z,23.5
2022-09-02T15:58:00.919Z,23.49
2022-09-02T16:02:53.524Z,23.48
2022-09-02T16:07:46.401Z,23.49
2022-09-02T16:12:39.162Z,23.49
2022-09-02T16:17:32.016Z,23.5
2022-09-02T16:22:24.699Z,23.53
2022-09-02T16:27:17.335Z,23.54
2022-09-02T16:32:26.844Z,23.56
2022-09-02T16:37:02.844Z,23.58
2022-09-02T16:41:55.396Z,23.52
2022-09-02T16:46:48.050Z,23.54
2022-09-02T16:51:40.557Z,23.53
2022-09-02T16:56:33.278Z,23.52
2022-09-02T17:01:31.860Z,23.47
2022-09-02T17:06:18.888Z,23.46
2022-09-02T17:11:11.444Z,23.48
2022-09-02T17:16:03.805Z,23.48
2022-09-02T17:20:56.395Z,23.45
2022-09-02T17:25:49.121Z,23.42
2022-09-02T17:30:41.963Z,23.41
2022-09-02T17:35:34.381Z,23.39
2022-09-02T17:40:27.080Z,23.43
2022-09-02T17:45:19.878Z,23.4
2022-09-02T17:50:15.978Z,23.39
2022-09-02T17:55:04.991Z,23.38
2022-09-02T17:59:57.546Z,23.37
2022-09-02T18:04:50.377Z,23.39
2022-09-02T18:09:42.482Z,23.33
2022-09-02T18:14:34.971Z,23.3
2022-09-02T18:19:27.535Z,23.28
2022-09-02T18:24:20.282Z,23.31
2022-09-02T18:29:12.582Z,23.29
2022-09-02T18:34:05.223Z,23.25
2022-09-02T18:38:57.885Z,23.28
2022-09-02T18:43:50.705Z,23.26
2022-09-02T18:48:43.384Z,23.26
2022-09-02T18:53:38.053Z,23.28
2022-09-02T18:58:30.234Z,23.26
2022-09-02T19:03:22.823Z,23.2
2022-09-02T19:08:15.540Z,23.22
2022-09-02T19:13:08.124Z,23.22
2022-09-02T19:18:00.841Z,23.23
2022-09-02T19:27:46.014Z,23.17
2022-09-02T19:37:31.115Z,23.16
2022-09-02T19:42:24.074Z,23.2
2022-09-02T19:52:09.369Z,23.27
2022-09-02T19:57:02.685Z,23.28
2022-09-02T20:01:54.918Z,23.28
2022-09-02T20:06:47.721Z,23.26
2022-09-02T20:11:40.973Z,23.28
2022-09-02T20:16:33.299Z,23.26
2022-09-02T20:21:25.926Z,23.26
2022-09-02T20:26:18.401Z,23.24
2022-09-02T20:31:11.141Z,23.26
2022-09-02T20:36:03.885Z,23.25
2022-09-02T20:40:56.533Z,23.24
2022-09-02T20:45:49.108Z,23.22
2022-09-02T20:50:41.880Z,23.23
2022-09-02T20:55:34.748Z,23.26
2022-09-02T21:00:27.574Z,23.21
2022-09-02T21:05:22.265Z,23.22
2022-09-02T21:10:12.788Z,23.2
2022-09-02T21:15:05.682Z,23.22
2022-09-02T21:19:58.144Z,23.2
2022-09-02T21:24:50.997Z,23.2
2022-09-02T21:29:43.695Z,23.24
2022-09-02T21:34:36.268Z,23.21
2022-09-02T21:39:28.888Z,23.15
2022-09-02T21:44:21.532Z,23.19
2022-09-02T21:49:14.063Z,23.17
2022-09-02T21:54:06.869Z,23.16
2022-09-02T21:58:59.557Z,23.19
2022-09-02T22:03:52.125Z,23.18
2022-09-02T22:08:44.737Z,23.17
2022-09-02T22:13:37.395Z,23.16
2022-09-02T22:18:30.076Z,23.17
2022-09-02T22:23:22.858Z,23.13
2022-09-02T22:28:15.594Z,23.14
2022-09-02T22:33:08.124Z,23.09
2022-09-02T22:38:00.821Z,23.14
2022-09-02T22:42:53.319Z,23.05
2022-09-02T22:47:46.389Z,23.09
2022-09-02T22:52:38.965Z,23.07
2022-09-02T22:57:31.737Z,23.05
2022-09-02T23:02:24.681Z,23.04
2022-09-02T23:07:17.130Z,23.04
2022-09-02T23:12:09.739Z,23.02
2022-09-02T23:17:02.355Z,23.05
2022-09-02T23:21:54.855Z,23.02
2022-09-02T23:26:47.531Z,22.99
2022-09-02T23:31:40.190Z,22.96
2022-09-02T23:36:32.755Z,23.01
2022-09-02T23:41:25.354Z,22.94
2022-09-02T23:46:18.168Z,22.94
2022-09-02T23:51:10.752Z,23
2022-09-02T23:56:03.529Z,22.96
